sensor_id;sensor_type;location;lat;lon;timestamp;P1;durP1;ratioP1;P2;durP2;ratioP2
57826;SDS011;43656;57.746;11.780;2023-01-01T00:01:10;26.80;;;12.68;;
57826;SDS011;43656;57.746;11.780;2023-01-01T00:03:38;30.30;;;12.65;;
57826;SDS011;43656;57.746;11.780;2023-01-01T00:06:08;33.50;;;12.18;;
57826;SDS011;43656;57.746;11.780;2023-01-01T00:08:35;28.42;;;11.07;;
57826;SDS011;43656;57.746;11.780;2023-01-01T00:11:01;24.27;;;9.10;;
57826;SDS011;43656;57.746;11.780;2023-01-01T00:13:28;30.35;;;9.77;;
57826;SDS011;43656;57.746;11.780;2023-01-01T00:15:54;26.02;;;9.52;;
57826;SDS011;43656;57.746;11.780;2023-01-01T00:18:19;22.52;;;8.65;;
57826;SDS011;43656;57.746;11.780;2023-01-01T00:20:45;27.13;;;8.07;;
57826;SDS011;43656;57.746;11.780;2023-01-01T00:23:10;28.88;;;8.55;;
57826;SDS011;43656;57.746;11.780;2023-01-01T00:25:38;27.23;;;8.95;;
57826;SDS011;43656;57.746;11.780;2023-01-01T00:28:04;23.48;;;7.80;;
57826;SDS011;43656;57.746;11.780;2023-01-01T00:30:30;26.73;;;8.60;;
57826;SDS011;43656;57.746;11.780;2023-01-01T00:32:55;23.20;;;8.63;;
57826;SDS011;43656;57.746;11.780;2023-01-01T00:35:25;25.20;;;8.00;;
57826;SDS011;43656;57.746;11.780;2023-01-01T00:37:50;23.92;;;8.75;;
57826;SDS011;43656;57.746;11.780;2023-01-01T00:40:17;25.02;;;8.73;;
57826;SDS011;43656;57.746;11.780;2023-01-01T00:42:42;16.55;;;7.70;;
57826;SDS011;43656;57.746;11.780;2023-01-01T00:45:08;25.13;;;8.82;;
57826;SDS011;43656;57.746;11.780;2023-01-01T00:47:34;22.00;;;7.85;;
57826;SDS011;43656;57.746;11.780;2023-01-01T00:49:59;22.77;;;8.27;;
57826;SDS011;43656;57.746;11.780;2023-01-01T00:52:24;23.25;;;8.63;;
57826;SDS011;43656;57.746;11.780;2023-01-01T00:54:50;22.50;;;8.60;;
57826;SDS011;43656;57.746;11.780;2023-01-01T00:57:15;25.45;;;9.00;;
57826;SDS011;43656;57.746;11.780;2023-01-01T00:59:40;27.25;;;9.98;;
57826;SDS011;43656;57.746;11.780;2023-01-01T01:02:06;26.17;;;8.95;;
57826;SDS011;43656;57.746;11.780;2023-01-01T01:04:31;27.17;;;9.15;;
57826;SDS011;43656;57.746;11.780;2023-01-01T01:06:57;29.90;;;9.95;;
57826;SDS011;43656;57.746;11.780;2023-01-01T01:09:23;30.75;;;8.82;;
57826;SDS011;43656;57.746;11.780;2023-01-01T01:11:48;24.10;;;8.98;;
57826;SDS011;43656;57.746;11.780;2023-01-01T01:14:14;24.02;;;9.85;;
57826;SDS011;43656;57.746;11.780;2023-01-01T01:16:39;24.00;;;9.13;;
57826;SDS011;43656;57.746;11.780;2023-01-01T01:19:05;23.80;;;10.20;;
57826;SDS011;43656;57.746;11.780;2023-01-01T01:21:32;24.52;;;9.70;;
57826;SDS011;43656;57.746;11.780;2023-01-01T01:23:58;28.42;;;9.70;;
57826;SDS011;43656;57.746;11.780;2023-01-01T01:26:29;25.60;;;9.73;;
57826;SDS011;43656;57.746;11.780;2023-01-01T01:28:56;30.25;;;11.35;;
57826;SDS011;43656;57.746;11.780;2023-01-01T01:31:23;28.55;;;11.50;;
57826;SDS011;43656;57.746;11.780;2023-01-01T01:33:53;29.67;;;11.93;;
57826;SDS011;43656;57.746;11.780;2023-01-01T01:36:19;31.02;;;11.10;;
57826;SDS011;43656;57.746;11.780;2023-01-01T01:38:45;25.30;;;10.38;;
57826;SDS011;43656;57.746;11.780;2023-01-01T01:41:12;31.30;;;10.35;;
57826;SDS011;43656;57.746;11.780;2023-01-01T01:48:40;30.63;;;11.50;;
57826;SDS011;43656;57.746;11.780;2023-01-01T01:51:08;33.13;;;11.55;;
57826;SDS011;43656;57.746;11.780;2023-01-01T01:53:36;31.77;;;11.70;;
57826;SDS011;43656;57.746;11.780;2023-01-01T01:56:06;28.92;;;10.95;;
57826;SDS011;43656;57.746;11.780;2023-01-01T01:58:37;27.45;;;11.07;;
57826;SDS011;43656;57.746;11.780;2023-01-01T02:01:03;27.75;;;10.65;;
57826;SDS011;43656;57.746;11.780;2023-01-01T02:06:04;26.98;;;10.82;;
57826;SDS011;43656;57.746;11.780;2023-01-01T02:08:30;28.60;;;11.32;;
57826;SDS011;43656;57.746;11.780;2023-01-01T02:10:57;28.52;;;10.85;;
57826;SDS011;43656;57.746;11.780;2023-01-01T02:13:23;33.60;;;10.38;;
57826;SDS011;43656;57.746;11.780;2023-01-01T02:15:53;32.70;;;11.10;;
57826;SDS011;43656;57.746;11.780;2023-01-01T02:18:26;34.17;;;11.32;;
57826;SDS011;43656;57.746;11.780;2023-01-01T02:26:26;31.85;;;10.68;;
57826;SDS011;43656;57.746;11.780;2023-01-01T02:31:39;29.83;;;11.38;;
57826;SDS011;43656;57.746;11.780;2023-01-01T02:34:12;26.98;;;10.40;;
57826;SDS011;43656;57.746;11.780;2023-01-01T02:36:47;30.27;;;11.07;;
57826;SDS011;43656;57.746;11.780;2023-01-01T02:39:15;27.02;;;11.35;;
57826;SDS011;43656;57.746;11.780;2023-01-01T02:41:44;22.73;;;10.25;;
57826;SDS011;43656;57.746;11.780;2023-01-01T02:44:13;27.90;;;10.40;;
57826;SDS011;43656;57.746;11.780;2023-01-01T02:46:39;25.85;;;10.45;;
57826;SDS011;43656;57.746;11.780;2023-01-01T02:49:05;30.25;;;10.75;;
57826;SDS011;43656;57.746;11.780;2023-01-01T02:51:34;30.23;;;10.48;;
57826;SDS011;43656;57.746;11.780;2023-01-01T02:56:58;32.28;;;10.30;;
57826;SDS011;43656;57.746;11.780;2023-01-01T03:10:36;28.30;;;10.93;;
57826;SDS011;43656;57.746;11.780;2023-01-01T03:16:04;23.83;;;9.98;;
57826;SDS011;43656;57.746;11.780;2023-01-01T03:22:05;25.23;;;10.32;;
57826;SDS011;43656;57.746;11.780;2023-01-01T03:24:34;26.65;;;10.82;;
57826;SDS011;43656;57.746;11.780;2023-01-01T03:27:08;23.60;;;10.65;;
57826;SDS011;43656;57.746;11.780;2023-01-01T03:29:39;28.08;;;10.85;;
57826;SDS011;43656;57.746;11.780;2023-01-01T03:32:06;27.95;;;11.25;;
57826;SDS011;43656;57.746;11.780;2023-01-01T03:34:55;25.13;;;10.23;;
57826;SDS011;43656;57.746;11.780;2023-01-01T03:37:23;24.88;;;10.32;;
57826;SDS011;43656;57.746;11.780;2023-01-01T03:39:52;26.55;;;10.32;;
57826;SDS011;43656;57.746;11.780;2023-01-01T03:42:30;25.77;;;10.20;;
57826;SDS011;43656;57.746;11.780;2023-01-01T03:47:43;25.67;;;10.23;;
57826;SDS011;43656;57.746;11.780;2023-01-01T03:50:09;22.38;;;9.98;;
57826;SDS011;43656;57.746;11.780;2023-01-01T03:57:49;21.40;;;9.55;;
57826;SDS011;43656;57.746;11.780;2023-01-01T04:00:20;22.88;;;9.15;;
57826;SDS011;43656;57.746;11.780;2023-01-01T04:05:52;21.05;;;8.52;;
57826;SDS011;43656;57.746;11.780;2023-01-01T04:08:18;25.50;;;9.32;;
57826;SDS011;43656;57.746;11.780;2023-01-01T04:10:45;24.30;;;9.52;;
57826;SDS011;43656;57.746;11.780;2023-01-01T04:13:15;30.13;;;9.77;;
57826;SDS011;43656;57.746;11.780;2023-01-01T04:15:40;22.02;;;9.27;;
57826;SDS011;43656;57.746;11.780;2023-01-01T04:18:05;18.50;;;9.15;;
57826;SDS011;43656;57.746;11.780;2023-01-01T04:20:31;21.15;;;9.18;;
57826;SDS011;43656;57.746;11.780;2023-01-01T04:22:57;21.50;;;9.23;;
57826;SDS011;43656;57.746;11.780;2023-01-01T04:25:24;25.02;;;10.07;;
57826;SDS011;43656;57.746;11.780;2023-01-01T04:27:49;22.92;;;9.48;;
57826;SDS011;43656;57.746;11.780;2023-01-01T04:30:15;24.60;;;9.88;;
57826;SDS011;43656;57.746;11.780;2023-01-01T04:32:40;29.77;;;9.77;;
57826;SDS011;43656;57.746;11.780;2023-01-01T04:35:07;23.75;;;9.32;;
57826;SDS011;43656;57.746;11.780;2023-01-01T04:37:34;23.00;;;9.15;;
57826;SDS011;43656;57.746;11.780;2023-01-01T04:40:00;24.83;;;8.90;;
57826;SDS011;43656;57.746;11.780;2023-01-01T04:42:26;23.02;;;9.00;;
57826;SDS011;43656;57.746;11.780;2023-01-01T04:44:54;25.25;;;9.40;;
57826;SDS011;43656;57.746;11.780;2023-01-01T04:47:20;25.35;;;9.35;;
57826;SDS011;43656;57.746;11.780;2023-01-01T04:49:46;24.90;;;9.70;;
57826;SDS011;43656;57.746;11.780;2023-01-01T04:52:11;25.67;;;9.40;;
57826;SDS011;43656;57.746;11.780;2023-01-01T04:54:37;25.25;;;10.23;;
57826;SDS011;43656;57.746;11.780;2023-01-01T04:57:02;27.23;;;9.55;;
57826;SDS011;43656;57.746;11.780;2023-01-01T04:59:28;21.48;;;8.43;;
57826;SDS011;43656;57.746;11.780;2023-01-01T05:01:54;21.52;;;7.70;;
57826;SDS011;43656;57.746;11.780;2023-01-01T05:04:20;18.40;;;6.78;;
57826;SDS011;43656;57.746;11.780;2023-01-01T05:06:45;16.08;;;5.93;;
57826;SDS011;43656;57.746;11.780;2023-01-01T05:09:11;15.45;;;5.88;;
57826;SDS011;43656;57.746;11.780;2023-01-01T05:11:37;19.25;;;5.63;;
57826;SDS011;43656;57.746;11.780;2023-01-01T05:14:03;13.57;;;4.57;;
57826;SDS011;43656;57.746;11.780;2023-01-01T05:16:33;16.00;;;4.10;;
57826;SDS011;43656;57.746;11.780;2023-01-01T05:19:00;14.55;;;4.28;;
57826;SDS011;43656;57.746;11.780;2023-01-01T05:21:32;11.40;;;3.63;;
57826;SDS011;43656;57.746;11.780;2023-01-01T05:26:29;15.63;;;3.65;;
57826;SDS011;43656;57.746;11.780;2023-01-01T05:28:56;13.52;;;3.47;;
57826;SDS011;43656;57.746;11.780;2023-01-01T05:31:24;13.00;;;3.45;;
57826;SDS011;43656;57.746;11.780;2023-01-01T05:33:51;10.90;;;3.42;;
57826;SDS011;43656;57.746;11.780;2023-01-01T05:36:19;16.63;;;3.50;;
57826;SDS011;43656;57.746;11.780;2023-01-01T05:38:49;11.43;;;3.63;;
57826;SDS011;43656;57.746;11.780;2023-01-01T05:41:17;14.02;;;3.55;;
57826;SDS011;43656;57.746;11.780;2023-01-01T05:43:44;15.60;;;3.65;;
57826;SDS011;43656;57.746;11.780;2023-01-01T05:46:11;15.57;;;3.50;;
57826;SDS011;43656;57.746;11.780;2023-01-01T05:48:38;12.38;;;2.97;;
57826;SDS011;43656;57.746;11.780;2023-01-01T05:53:33;6.93;;;2.40;;
57826;SDS011;43656;57.746;11.780;2023-01-01T05:55:59;16.00;;;3.17;;
57826;SDS011;43656;57.746;11.780;2023-01-01T05:58:25;9.90;;;2.88;;
57826;SDS011;43656;57.746;11.780;2023-01-01T06:00:52;14.55;;;3.13;;
57826;SDS011;43656;57.746;11.780;2023-01-01T06:03:21;13.10;;;3.22;;
57826;SDS011;43656;57.746;11.780;2023-01-01T06:05:47;8.77;;;2.53;;
57826;SDS011;43656;57.746;11.780;2023-01-01T06:08:12;10.80;;;2.65;;
57826;SDS011;43656;57.746;11.780;2023-01-01T06:10:41;10.52;;;2.00;;
57826;SDS011;43656;57.746;11.780;2023-01-01T06:13:06;6.18;;;1.83;;
57826;SDS011;43656;57.746;11.780;2023-01-01T06:15:32;10.55;;;1.83;;
57826;SDS011;43656;57.746;11.780;2023-01-01T06:17:58;9.30;;;1.73;;
57826;SDS011;43656;57.746;11.780;2023-01-01T06:20:23;5.97;;;1.75;;
57826;SDS011;43656;57.746;11.780;2023-01-01T06:22:49;6.72;;;1.63;;
57826;SDS011;43656;57.746;11.780;2023-01-01T06:25:14;12.88;;;1.63;;
57826;SDS011;43656;57.746;11.780;2023-01-01T06:27:40;7.32;;;1.30;;
57826;SDS011;43656;57.746;11.780;2023-01-01T06:30:05;6.07;;;1.15;;
57826;SDS011;43656;57.746;11.780;2023-01-01T06:32:31;9.18;;;1.23;;
57826;SDS011;43656;57.746;11.780;2023-01-01T06:34:57;6.43;;;1.20;;
57826;SDS011;43656;57.746;11.780;2023-01-01T06:37:23;9.40;;;1.50;;
57826;SDS011;43656;57.746;11.780;2023-01-01T06:39:49;9.52;;;1.50;;
57826;SDS011;43656;57.746;11.780;2023-01-01T06:42:14;7.88;;;1.50;;
57826;SDS011;43656;57.746;11.780;2023-01-01T06:44:40;5.75;;;1.20;;
57826;SDS011;43656;57.746;11.780;2023-01-01T06:47:05;10.82;;;1.55;;
57826;SDS011;43656;57.746;11.780;2023-01-01T06:49:31;6.97;;;1.17;;
57826;SDS011;43656;57.746;11.780;2023-01-01T06:51:57;9.70;;;1.30;;
57826;SDS011;43656;57.746;11.780;2023-01-01T06:54:22;9.98;;;1.33;;
57826;SDS011;43656;57.746;11.780;2023-01-01T06:56:47;6.30;;;1.23;;
57826;SDS011;43656;57.746;11.780;2023-01-01T06:59:14;5.90;;;1.30;;
57826;SDS011;43656;57.746;11.780;2023-01-01T07:01:40;5.72;;;1.00;;
57826;SDS011;43656;57.746;11.780;2023-01-01T07:04:07;6.00;;;1.00;;
57826;SDS011;43656;57.746;11.780;2023-01-01T07:06:36;6.35;;;1.33;;
57826;SDS011;43656;57.746;11.780;2023-01-01T07:09:02;8.18;;;1.30;;
57826;SDS011;43656;57.746;11.780;2023-01-01T07:11:29;5.30;;;1.00;;
57826;SDS011;43656;57.746;11.780;2023-01-01T07:13:54;6.38;;;1.20;;
57826;SDS011;43656;57.746;11.780;2023-01-01T07:16:20;5.38;;;1.10;;
57826;SDS011;43656;57.746;11.780;2023-01-01T07:18:46;5.35;;;1.02;;
57826;SDS011;43656;57.746;11.780;2023-01-01T07:21:29;6.82;;;1.13;;
57826;SDS011;43656;57.746;11.780;2023-01-01T07:24:03;7.65;;;1.80;;
57826;SDS011;43656;57.746;11.780;2023-01-01T07:28:55;10.20;;;1.50;;
57826;SDS011;43656;57.746;11.780;2023-01-01T07:31:21;6.90;;;1.42;;
57826;SDS011;43656;57.746;11.780;2023-01-01T07:33:47;5.85;;;1.20;;
57826;SDS011;43656;57.746;11.780;2023-01-01T07:36:12;6.13;;;0.90;;
57826;SDS011;43656;57.746;11.780;2023-01-01T07:38:38;8.07;;;1.20;;
57826;SDS011;43656;57.746;11.780;2023-01-01T07:41:03;10.93;;;1.30;;
57826;SDS011;43656;57.746;11.780;2023-01-01T07:43:29;10.43;;;1.30;;
57826;SDS011;43656;57.746;11.780;2023-01-01T07:45:54;8.02;;;1.15;;
57826;SDS011;43656;57.746;11.780;2023-01-01T07:48:21;10.77;;;1.30;;
57826;SDS011;43656;57.746;11.780;2023-01-01T07:50:46;8.25;;;1.10;;
57826;SDS011;43656;57.746;11.780;2023-01-01T07:53:11;6.05;;;1.20;;
57826;SDS011;43656;57.746;11.780;2023-01-01T07:55:37;9.43;;;1.30;;
57826;SDS011;43656;57.746;11.780;2023-01-01T07:58:02;8.50;;;1.48;;
57826;SDS011;43656;57.746;11.780;2023-01-01T08:00:28;7.03;;;1.00;;
57826;SDS011;43656;57.746;11.780;2023-01-01T08:02:54;6.07;;;1.10;;
57826;SDS011;43656;57.746;11.780;2023-01-01T08:05:19;4.70;;;1.10;;
57826;SDS011;43656;57.746;11.780;2023-01-01T08:07:46;5.85;;;1.45;;
57826;SDS011;43656;57.746;11.780;2023-01-01T08:10:12;9.07;;;1.67;;
57826;SDS011;43656;57.746;11.780;2023-01-01T08:12:39;6.53;;;1.20;;
57826;SDS011;43656;57.746;11.780;2023-01-01T08:15:04;7.15;;;1.00;;
57826;SDS011;43656;57.746;11.780;2023-01-01T08:17:30;7.43;;;1.60;;
57826;SDS011;43656;57.746;11.780;2023-01-01T08:19:55;6.82;;;1.55;;
57826;SDS011;43656;57.746;11.780;2023-01-01T08:22:21;12.30;;;1.10;;
57826;SDS011;43656;57.746;11.780;2023-01-01T08:24:48;5.72;;;1.00;;
57826;SDS011;43656;57.746;11.780;2023-01-01T08:27:14;6.80;;;0.98;;
57826;SDS011;43656;57.746;11.780;2023-01-01T08:29:40;4.88;;;0.90;;
57826;SDS011;43656;57.746;11.780;2023-01-01T08:32:06;7.28;;;1.77;;
57826;SDS011;43656;57.746;11.780;2023-01-01T08:34:31;9.25;;;1.52;;
57826;SDS011;43656;57.746;11.780;2023-01-01T08:36:57;10.90;;;2.45;;
57826;SDS011;43656;57.746;11.780;2023-01-01T08:39:23;10.68;;;2.25;;
57826;SDS011;43656;57.746;11.780;2023-01-01T08:41:49;8.80;;;1.75;;
57826;SDS011;43656;57.746;11.780;2023-01-01T08:44:14;6.28;;;1.10;;
57826;SDS011;43656;57.746;11.780;2023-01-01T08:46:40;5.68;;;1.80;;
57826;SDS011;43656;57.746;11.780;2023-01-01T08:49:05;14.75;;;2.00;;
57826;SDS011;43656;57.746;11.780;2023-01-01T08:51:30;10.05;;;2.47;;
57826;SDS011;43656;57.746;11.780;2023-01-01T08:53:56;6.57;;;2.20;;
57826;SDS011;43656;57.746;11.780;2023-01-01T08:56:21;7.22;;;2.05;;
57826;SDS011;43656;57.746;11.780;2023-01-01T08:58:47;10.43;;;1.55;;
57826;SDS011;43656;57.746;11.780;2023-01-01T09:01:13;8.95;;;1.30;;
57826;SDS011;43656;57.746;11.780;2023-01-01T09:03:39;5.68;;;0.90;;
57826;SDS011;43656;57.746;11.780;2023-01-01T09:06:04;8.18;;;1.10;;
57826;SDS011;43656;57.746;11.780;2023-01-01T09:08:30;7.93;;;1.30;;
57826;SDS011;43656;57.746;11.780;2023-01-01T09:10:59;5.97;;;1.15;;
57826;SDS011;43656;57.746;11.780;2023-01-01T09:13:25;8.65;;;1.30;;
57826;SDS011;43656;57.746;11.780;2023-01-01T09:15:51;10.18;;;1.35;;
57826;SDS011;43656;57.746;11.780;2023-01-01T09:18:17;5.93;;;1.25;;
57826;SDS011;43656;57.746;11.780;2023-01-01T09:20:42;10.80;;;1.67;;
57826;SDS011;43656;57.746;11.780;2023-01-01T09:23:09;10.35;;;1.80;;
57826;SDS011;43656;57.746;11.780;2023-01-01T09:25:35;8.05;;;1.70;;
57826;SDS011;43656;57.746;11.780;2023-01-01T09:28:02;7.38;;;1.40;;
57826;SDS011;43656;57.746;11.780;2023-01-01T09:30:32;9.50;;;1.40;;
57826;SDS011;43656;57.746;11.780;2023-01-01T09:32:59;10.20;;;1.90;;
57826;SDS011;43656;57.746;11.780;2023-01-01T09:35:25;7.93;;;2.60;;
57826;SDS011;43656;57.746;11.780;2023-01-01T09:37:50;6.45;;;2.25;;
57826;SDS011;43656;57.746;11.780;2023-01-01T09:40:29;6.15;;;1.70;;
57826;SDS011;43656;57.746;11.780;2023-01-01T09:46:09;6.40;;;1.65;;
57826;SDS011;43656;57.746;11.780;2023-01-01T09:48:40;7.07;;;2.05;;
57826;SDS011;43656;57.746;11.780;2023-01-01T09:51:16;6.32;;;1.40;;
57826;SDS011;43656;57.746;11.780;2023-01-01T09:56:44;9.45;;;1.60;;
57826;SDS011;43656;57.746;11.780;2023-01-01T09:59:10;5.95;;;1.30;;
57826;SDS011;43656;57.746;11.780;2023-01-01T10:09:47;5.55;;;1.30;;
57826;SDS011;43656;57.746;11.780;2023-01-01T10:12:33;7.47;;;1.75;;
57826;SDS011;43656;57.746;11.780;2023-01-01T10:17:48;3.92;;;1.45;;
57826;SDS011;43656;57.746;11.780;2023-01-01T10:20:43;9.38;;;1.65;;
57826;SDS011;43656;57.746;11.780;2023-01-01T10:23:16;8.32;;;1.48;;
57826;SDS011;43656;57.746;11.780;2023-01-01T10:25:46;5.97;;;1.40;;
57826;SDS011;43656;57.746;11.780;2023-01-01T10:28:19;5.18;;;1.52;;
57826;SDS011;43656;57.746;11.780;2023-01-01T10:30:51;7.63;;;1.77;;
57826;SDS011;43656;57.746;11.780;2023-01-01T10:33:22;7.65;;;1.70;;
57826;SDS011;43656;57.746;11.780;2023-01-01T10:35:48;11.07;;;1.70;;
57826;SDS011;43656;57.746;11.780;2023-01-01T10:38:20;6.40;;;1.63;;
57826;SDS011;43656;57.746;11.780;2023-01-01T10:40:47;7.07;;;2.00;;
57826;SDS011;43656;57.746;11.780;2023-01-01T10:43:14;3.90;;;1.42;;
57826;SDS011;43656;57.746;11.780;2023-01-01T10:45:42;6.47;;;1.83;;
57826;SDS011;43656;57.746;11.780;2023-01-01T10:48:15;8.30;;;1.80;;
57826;SDS011;43656;57.746;11.780;2023-01-01T10:50:59;6.05;;;2.08;;
57826;SDS011;43656;57.746;11.780;2023-01-01T10:53:27;7.68;;;2.33;;
57826;SDS011;43656;57.746;11.780;2023-01-01T10:58:46;9.68;;;2.40;;
57826;SDS011;43656;57.746;11.780;2023-01-01T11:06:35;5.35;;;1.70;;
57826;SDS011;43656;57.746;11.780;2023-01-01T11:09:02;6.95;;;2.08;;
57826;SDS011;43656;57.746;11.780;2023-01-01T11:14:55;5.90;;;1.70;;
57826;SDS011;43656;57.746;11.780;2023-01-01T11:17:02;4.93;;;1.33;;
57826;SDS011;43656;57.746;11.780;2023-01-01T11:19:32;3.97;;;0.95;;
57826;SDS011;43656;57.746;11.780;2023-01-01T11:22:01;3.20;;;1.40;;
57826;SDS011;43656;57.746;11.780;2023-01-01T11:24:28;3.78;;;1.23;;
57826;SDS011;43656;57.746;11.780;2023-01-01T11:29:45;5.57;;;1.30;;
57826;SDS011;43656;57.746;11.780;2023-01-01T11:32:15;2.13;;;1.20;;
57826;SDS011;43656;57.746;11.780;2023-01-01T11:34:46;2.63;;;1.08;;
57826;SDS011;43656;57.746;11.780;2023-01-01T11:37:25;2.45;;;0.93;;
57826;SDS011;43656;57.746;11.780;2023-01-01T11:39:54;3.13;;;1.15;;
57826;SDS011;43656;57.746;11.780;2023-01-01T11:42:32;4.70;;;1.10;;
57826;SDS011;43656;57.746;11.780;2023-01-01T11:45:00;1.58;;;1.00;;
57826;SDS011;43656;57.746;11.780;2023-01-01T11:47:43;3.35;;;0.90;;
57826;SDS011;43656;57.746;11.780;2023-01-01T11:50:17;3.33;;;1.35;;
57826;SDS011;43656;57.746;11.780;2023-01-01T11:52:50;1.45;;;1.00;;
57826;SDS011;43656;57.746;11.780;2023-01-01T11:57:54;4.40;;;1.05;;
57826;SDS011;43656;57.746;11.780;2023-01-01T12:00:21;3.95;;;1.38;;
57826;SDS011;43656;57.746;11.780;2023-01-01T12:02:59;6.10;;;1.55;;
57826;SDS011;43656;57.746;11.780;2023-01-01T12:05:48;3.72;;;1.25;;
57826;SDS011;43656;57.746;11.780;2023-01-01T12:08:21;4.43;;;1.50;;
57826;SDS011;43656;57.746;11.780;2023-01-01T12:13:47;3.67;;;1.20;;
57826;SDS011;43656;57.746;11.780;2023-01-01T12:16:21;2.95;;;1.23;;
57826;SDS011;43656;57.746;11.780;2023-01-01T12:19:08;4.53;;;0.90;;
57826;SDS011;43656;57.746;11.780;2023-01-01T12:22:01;4.20;;;1.00;;
57826;SDS011;43656;57.746;11.780;2023-01-01T12:24:31;4.28;;;0.95;;
57826;SDS011;43656;57.746;11.780;2023-01-01T12:27:09;2.58;;;1.00;;
57826;SDS011;43656;57.746;11.780;2023-01-01T12:30:03;3.45;;;1.02;;
57826;SDS011;43656;57.746;11.780;2023-01-01T12:40:33;2.42;;;0.90;;
57826;SDS011;43656;57.746;11.780;2023-01-01T12:43:17;3.08;;;0.90;;
57826;SDS011;43656;57.746;11.780;2023-01-01T12:56:48;2.78;;;1.00;;
57826;SDS011;43656;57.746;11.780;2023-01-01T12:59:23;2.65;;;1.00;;
57826;SDS011;43656;57.746;11.780;2023-01-01T13:01:56;3.40;;;0.90;;
57826;SDS011;43656;57.746;11.780;2023-01-01T13:04:24;2.28;;;1.08;;
57826;SDS011;43656;57.746;11.780;2023-01-01T13:09:40;1.73;;;0.98;;
57826;SDS011;43656;57.746;11.780;2023-01-01T13:12:19;6.20;;;1.50;;
57826;SDS011;43656;57.746;11.780;2023-01-01T13:14:48;3.03;;;1.23;;
57826;SDS011;43656;57.746;11.780;2023-01-01T13:19:47;1.77;;;0.80;;
57826;SDS011;43656;57.746;11.780;2023-01-01T13:35:42;3.92;;;1.00;;
57826;SDS011;43656;57.746;11.780;2023-01-01T13:41:27;1.42;;;0.73;;
57826;SDS011;43656;57.746;11.780;2023-01-01T13:44:16;1.95;;;0.80;;
57826;SDS011;43656;57.746;11.780;2023-01-01T13:49:57;0.90;;;0.60;;
57826;SDS011;43656;57.746;11.780;2023-01-01T13:52:49;1.50;;;0.88;;
57826;SDS011;43656;57.746;11.780;2023-01-01T14:03:27;2.13;;;0.90;;
57826;SDS011;43656;57.746;11.780;2023-01-01T14:05:59;2.28;;;0.77;;
57826;SDS011;43656;57.746;11.780;2023-01-01T14:08:32;1.98;;;0.70;;
57826;SDS011;43656;57.746;11.780;2023-01-01T14:10:59;4.00;;;0.80;;
57826;SDS011;43656;57.746;11.780;2023-01-01T14:13:27;1.42;;;0.73;;
57826;SDS011;43656;57.746;11.780;2023-01-01T14:16:03;3.28;;;0.90;;
57826;SDS011;43656;57.746;11.780;2023-01-01T14:20:58;2.35;;;0.93;;
57826;SDS011;43656;57.746;11.780;2023-01-01T14:23:34;3.40;;;1.10;;
57826;SDS011;43656;57.746;11.780;2023-01-01T14:26:07;3.13;;;0.93;;
57826;SDS011;43656;57.746;11.780;2023-01-01T14:28:39;3.45;;;1.00;;
57826;SDS011;43656;57.746;11.780;2023-01-01T14:31:19;1.63;;;0.70;;
57826;SDS011;43656;57.746;11.780;2023-01-01T14:33:47;0.90;;;0.70;;
57826;SDS011;43656;57.746;11.780;2023-01-01T14:36:18;1.08;;;0.60;;
57826;SDS011;43656;57.746;11.780;2023-01-01T14:38:48;1.10;;;0.73;;
57826;SDS011;43656;57.746;11.780;2023-01-01T14:41:20;1.50;;;0.80;;
57826;SDS011;43656;57.746;11.780;2023-01-01T14:44:17;2.35;;;0.70;;
57826;SDS011;43656;57.746;11.780;2023-01-01T14:46:49;2.17;;;0.68;;
57826;SDS011;43656;57.746;11.780;2023-01-01T14:49:17;1.00;;;0.60;;
57826;SDS011;43656;57.746;11.780;2023-01-01T14:51:49;1.27;;;0.70;;
57826;SDS011;43656;57.746;11.780;2023-01-01T14:54:19;2.25;;;0.80;;
57826;SDS011;43656;57.746;11.780;2023-01-01T14:56:47;1.38;;;0.60;;
57826;SDS011;43656;57.746;11.780;2023-01-01T15:01:43;1.63;;;0.50;;
57826;SDS011;43656;57.746;11.780;2023-01-01T15:04:19;1.92;;;1.00;;
57826;SDS011;43656;57.746;11.780;2023-01-01T15:06:59;1.60;;;0.70;;
57826;SDS011;43656;57.746;11.780;2023-01-01T15:09:25;1.27;;;0.80;;
57826;SDS011;43656;57.746;11.780;2023-01-01T15:11:53;1.20;;;0.80;;
57826;SDS011;43656;57.746;11.780;2023-01-01T15:14:30;1.65;;;1.00;;
57826;SDS011;43656;57.746;11.780;2023-01-01T15:19:28;1.30;;;0.80;;
57826;SDS011;43656;57.746;11.780;2023-01-01T15:21:54;3.72;;;1.10;;
57826;SDS011;43656;57.746;11.780;2023-01-01T15:24:20;1.20;;;0.73;;
57826;SDS011;43656;57.746;11.780;2023-01-01T15:26:51;0.88;;;0.70;;
57826;SDS011;43656;57.746;11.780;2023-01-01T15:29:22;1.80;;;1.20;;
57826;SDS011;43656;57.746;11.780;2023-01-01T15:32:12;1.50;;;1.02;;
57826;SDS011;43656;57.746;11.780;2023-01-01T15:34:49;1.92;;;0.75;;
57826;SDS011;43656;57.746;11.780;2023-01-01T15:42:38;1.55;;;0.65;;
57826;SDS011;43656;57.746;11.780;2023-01-01T15:45:49;1.25;;;0.90;;
57826;SDS011;43656;57.746;11.780;2023-01-01T15:48:36;2.10;;;1.00;;
57826;SDS011;43656;57.746;11.780;2023-01-01T15:53:14;3.10;;;1.25;;
57826;SDS011;43656;57.746;11.780;2023-01-01T15:56:11;1.92;;;1.10;;
57826;SDS011;43656;57.746;11.780;2023-01-01T15:58:38;7.43;;;4.13;;
57826;SDS011;43656;57.746;11.780;2023-01-01T16:01:08;17.27;;;11.10;;
57826;SDS011;43656;57.746;11.780;2023-01-01T16:03:35;3.72;;;3.15;;
57826;SDS011;43656;57.746;11.780;2023-01-01T16:06:03;6.05;;;3.80;;
57826;SDS011;43656;57.746;11.780;2023-01-01T16:08:29;4.68;;;3.33;;
57826;SDS011;43656;57.746;11.780;2023-01-01T16:10:54;3.22;;;2.00;;
57826;SDS011;43656;57.746;11.780;2023-01-01T16:13:20;2.22;;;1.38;;
57826;SDS011;43656;57.746;11.780;2023-01-01T16:15:59;2.63;;;1.00;;
57826;SDS011;43656;57.746;11.780;2023-01-01T16:20:58;1.40;;;0.90;;
57826;SDS011;43656;57.746;11.780;2023-01-01T16:23:24;1.60;;;0.88;;
57826;SDS011;43656;57.746;11.780;2023-01-01T16:25:50;1.50;;;0.77;;
57826;SDS011;43656;57.746;11.780;2023-01-01T16:28:15;2.05;;;1.00;;
57826;SDS011;43656;57.746;11.780;2023-01-01T16:30:41;1.80;;;0.90;;
57826;SDS011;43656;57.746;11.780;2023-01-01T16:33:17;1.55;;;0.80;;
57826;SDS011;43656;57.746;11.780;2023-01-01T16:35:44;1.15;;;0.70;;
57826;SDS011;43656;57.746;11.780;2023-01-01T16:38:10;1.58;;;0.80;;
57826;SDS011;43656;57.746;11.780;2023-01-01T16:40:36;1.30;;;0.90;;
57826;SDS011;43656;57.746;11.780;2023-01-01T16:43:01;1.00;;;0.70;;
57826;SDS011;43656;57.746;11.780;2023-01-01T16:45:29;1.30;;;0.90;;
57826;SDS011;43656;57.746;11.780;2023-01-01T16:47:55;1.45;;;0.93;;
57826;SDS011;43656;57.746;11.780;2023-01-01T16:50:20;2.05;;;1.10;;
57826;SDS011;43656;57.746;11.780;2023-01-01T16:52:46;3.28;;;1.70;;
57826;SDS011;43656;57.746;11.780;2023-01-01T16:55:12;2.40;;;1.70;;
57826;SDS011;43656;57.746;11.780;2023-01-01T16:57:37;2.45;;;1.40;;
57826;SDS011;43656;57.746;11.780;2023-01-01T17:00:04;1.80;;;1.23;;
57826;SDS011;43656;57.746;11.780;2023-01-01T17:02:30;2.35;;;1.65;;
57826;SDS011;43656;57.746;11.780;2023-01-01T17:04:55;3.53;;;1.90;;
57826;SDS011;43656;57.746;11.780;2023-01-01T17:07:21;3.63;;;1.73;;
57826;SDS011;43656;57.746;11.780;2023-01-01T17:09:46;3.35;;;2.00;;
57826;SDS011;43656;57.746;11.780;2023-01-01T17:12:12;3.22;;;2.00;;
57826;SDS011;43656;57.746;11.780;2023-01-01T17:14:37;2.15;;;1.70;;
57826;SDS011;43656;57.746;11.780;2023-01-01T17:17:03;3.38;;;1.77;;
57826;SDS011;43656;57.746;11.780;2023-01-01T17:19:28;2.70;;;1.90;;